Time;durP1;ratioP1;P1;durP2;ratioP2;P2;SDS_P1;SDS_P2;PMS_P1;PMS_P2;Temp;Humidity;BMP_temperature;BMP_pressure;BME280_temperature;BME280_humidity;BME280_pressure;Samples;Min_cycle;Max_cycle;Signal;HPM_P1;HPM_P2
2021/04/04 00:00:10;;;;;;;;;;;;;;;9.23;36.80;102052.47;5054855;28;96543;-80
2021/04/04 00:02:37;;;;;;;;;;;;;;;9.07;36.88;102057.00;5042497;28;97683;-81
2021/04/04 00:05:03;;;;;;;;;;;;;;;8.57;37.72;102056.53;5058825;27;96743;-80
2021/04/04 00:07:29;;;;;;;;;;;;;;;8.51;37.92;102060.06;5054632;28;96603;-81
2021/04/04 00:09:55;;;;;;;;;;;;;;;8.29;38.27;102058.41;5054617;27;98159;-81
2021/04/04 00:12:21;;;;;;;;;;;;;;;8.29;38.16;102058.41;5042856;27;96649;-81
2021/04/04 00:14:48;;;;;;;;;;;;;;;8.16;37.93;102054.94;5031636;28;96697;-79
2021/04/04 00:17:14;;;;;;;;;;;;;;;8.01;38.40;102055.88;5027369;28;97266;-81
2021/04/04 00:19:40;;;;;;;;;;;;;;;8.11;38.29;102054.09;5025606;28;101459;-80
2021/04/04 00:22:06;;;;;;;;;;;;;;;7.89;39.22;102048.03;5038542;28;99234;-81
2021/04/04 00:24:32;;;;;;;;;;;;;;;8.06;38.96;102047.13;5034398;28;96707;-80
2021/04/04 00:26:58;;;;;;;;;;;;;;;8.04;39.01;102052.38;5032112;28;96817;-80
2021/04/04 00:29:24;;;;;;;;;;;;;;;8.17;39.48;102061.09;5030828;28;99232;-81
2021/04/04 00:31:50;;;;;;;;;;;;;;;8.00;39.69;102053.28;5032322;28;98878;-81
2021/04/04 00:34:17;;;;;;;;;;;;;;;7.95;40.05;102050.66;5040107;27;96888;-81
2021/04/04 00:39:28;;;;;;;;;;;;;;;7.77;40.85;102049.84;5029968;27;98296;-81
2021/04/04 00:41:54;;;;;;;;;;;;;;;8.08;40.13;102051.47;5025076;28;101177;-81
2021/04/04 00:44:20;;;;;;;;;;;;;;;7.87;40.72;102059.47;5036762;28;97117;-83
2021/04/04 00:46:46;;;;;;;;;;;;;;;8.23;40.00;102055.81;5027319;28;96798;-81
2021/04/04 00:49:12;;;;;;;;;;;;;;;7.95;40.68;102049.78;5039153;28;97862;-81
2021/04/04 00:51:40;;;;;;;;;;;;;;;8.03;41.12;102042.72;5029325;27;99182;-81
2021/04/04 00:54:06;;;;;;;;;;;;;;;7.78;41.35;102041.09;5035206;27;96924;-81
2021/04/04 00:56:32;;;;;;;;;;;;;;;7.83;41.01;102039.31;5038421;28;96757;-82
2021/04/04 00:58:58;;;;;;;;;;;;;;;8.08;40.34;102040.06;5040764;28;99463;-81
2021/04/04 01:01:25;;;;;;;;;;;;;;;7.76;40.84;102043.72;5036443;28;98794;-81
2021/04/04 01:03:52;;;;;;;;;;;;;;;7.68;40.92;102045.47;5039901;28;96685;-80
2021/04/04 01:06:17;;;;;;;;;;;;;;;7.69;40.77;102049.88;5037881;28;96874;-80
2021/04/04 01:08:44;;;;;;;;;;;;;;;7.64;41.19;102050.78;5036723;28;100877;-81
2021/04/04 01:11:12;;;;;;;;;;;;;;;7.61;41.61;102049.88;5034588;27;97873;-81
2021/04/04 01:13:42;;;;;;;;;;;;;;;7.51;42.34;102049.94;5039393;27;96907;-80
2021/04/04 01:16:10;;;;;;;;;;;;;;;7.57;42.54;102049.91;5046168;28;98483;-82
2021/04/04 01:18:38;;;;;;;;;;;;;;;7.52;43.03;102049.94;5050658;27;97483;-80
2021/04/04 01:21:05;;;;;;;;;;;;;;;7.35;43.90;102056.94;5046470;28;97637;-81
2021/04/04 01:23:49;;;;;;;;;;;;;;;7.30;43.76;102055.22;5050387;27;96603;-81
2021/04/04 01:26:20;;;;;;;;;;;;;;;7.36;43.53;102058.72;5024259;28;96937;-81
2021/04/04 01:28:47;;;;;;;;;;;;;;;7.28;43.29;102049.09;5029035;28;98402;-81
2021/04/04 01:31:14;;;;;;;;;;;;;;;7.35;43.27;102049.06;5018216;28;97595;-81
2021/04/04 01:33:41;;;;;;;;;;;;;;;7.55;42.29;102049.91;5029826;27;98425;-81
2021/04/04 01:36:09;;;;;;;;;;;;;;;7.61;41.65;102044.63;5026116;28;96709;-80
2021/04/04 01:38:37;;;;;;;;;;;;;;;7.37;42.07;102044.69;5024968;27;101490;-82
2021/04/04 01:41:07;;;;;;;;;;;;;;;7.70;41.36;102038.47;5018787;28;98007;-80
2021/04/04 01:43:33;;;;;;;;;;;;;;;7.52;41.39;102046.41;5034794;28;96880;-81
2021/04/04 01:46:01;;;;;;;;;;;;;;;7.73;41.53;102037.59;5035385;28;98601;-81
2021/04/04 01:48:29;;;;;;;;;;;;;;;7.50;40.56;102042.91;5028679;28;99079;-81
2021/04/04 01:50:55;;;;;;;;;;;;;;;7.86;40.87;102044.56;5030236;28;97896;-80
2021/04/04 01:53:22;;;;;;;;;;;;;;;7.94;40.47;102037.53;5038415;28;96809;-81
2021/04/04 01:55:48;;;;;;;;;;;;;;;7.92;39.50;102041.91;5028564;28;96888;-81
2021/04/04 01:58:15;;;;;;;;;;;;;;;8.10;38.94;102043.56;5044398;28;98895;-81
2021/04/04 02:00:41;;;;;;;;;;;;;;;7.99;39.79;102041.00;5039748;28;99487;-81
2021/04/04 02:03:08;;;;;;;;;;;;;;;8.13;40.08;102043.56;5036637;28;96967;-81
2021/04/04 02:05:34;;;;;;;;;;;;;;;8.25;39.69;102041.75;5037295;27;96917;-81
2021/04/04 02:08:01;;;;;;;;;;;;;;;7.95;40.26;102028.72;5018900;28;98932;-81
2021/04/04 02:10:29;;;;;;;;;;;;;;;7.58;41.46;102034.13;5034158;27;97802;-82
2021/04/04 02:12:56;;;;;;;;;;;;;;;7.79;40.43;102032.31;5036134;28;96824;-81
2021/04/04 02:15:25;;;;;;;;;;;;;;;7.67;41.04;102020.09;5038562;28;96797;-81
2021/04/04 02:17:51;;;;;;;;;;;;;;;7.34;41.84;102028.06;5034421;28;99199;-80
2021/04/04 02:20:21;;;;;;;;;;;;;;;7.28;41.94;102028.94;5036903;27;98847;-81
2021/04/04 02:22:48;;;;;;;;;;;;;;;7.45;41.84;102021.88;5036409;27;97437;-81
2021/04/04 02:25:15;;;;;;;;;;;;;;;7.42;42.07;102024.50;5035112;28;96840;-81
2021/04/04 02:27:41;;;;;;;;;;;;;;;7.42;41.57;102023.63;5027017;28;99371;-81
2021/04/04 02:30:07;;;;;;;;;;;;;;;7.56;41.82;102020.09;5029679;28;98667;-80
2021/04/04 02:32:36;;;;;;;;;;;;;;;7.77;40.21;102010.38;5027447;28;97074;-81
2021/04/04 02:35:03;;;;;;;;;;;;;;;7.71;39.79;102008.66;5032352;28;96738;-81
2021/04/04 02:37:30;;;;;;;;;;;;;;;8.05;38.74;102011.13;5035632;28;98817;-81
2021/04/04 02:39:59;;;;;;;;;;;;;;;8.08;38.84;102009.34;5032324;28;98102;-80
2021/04/04 02:42:27;;;;;;;;;;;;;;;7.92;38.66;102003.31;5029797;27;97340;-81
2021/04/04 02:44:54;;;;;;;;;;;;;;;8.13;38.64;102002.34;5027868;28;97533;-81
2021/04/04 02:47:23;;;;;;;;;;;;;;;8.20;38.30;101996.16;5024601;28;99203;-81
2021/04/04 02:49:51;;;;;;;;;;;;;;;8.50;38.10;102000.34;5021470;27;98693;-80
2021/04/04 02:52:19;;;;;;;;;;;;;;;8.32;38.45;101997.84;5026799;28;97070;-81
2021/04/04 02:54:47;;;;;;;;;;;;;;;7.91;39.18;102001.56;5034055;27;96745;-80
2021/04/04 02:57:15;;;;;;;;;;;;;;;7.98;39.00;101998.00;5037475;27;101722;-81
2021/04/04 02:59:43;;;;;;;;;;;;;;;8.17;38.69;101992.63;5028900;28;96917;-81
2021/04/04 03:02:11;;;;;;;;;;;;;;;7.99;38.75;101998.88;5017128;28;97215;-82
2021/04/04 03:04:37;;;;;;;;;;;;;;;8.18;38.39;101987.38;5030385;28;97164;-79
2021/04/04 03:07:05;;;;;;;;;;;;;;;8.25;38.10;101991.72;5015569;28;99272;-81
2021/04/04 03:09:33;;;;;;;;;;;;;;;8.40;37.81;101990.78;5016267;27;99073;-81
2021/04/04 03:12:00;;;;;;;;;;;;;;;8.38;37.46;101989.91;5018460;28;97224;-81
2021/04/04 03:14:27;;;;;;;;;;;;;;;8.42;37.17;101994.25;5038335;28;96896;-81
2021/04/04 03:16:54;;;;;;;;;;;;;;;8.26;37.38;101989.97;5037671;28;98896;-82
2021/04/04 03:19:21;;;;;;;;;;;;;;;8.33;37.25;101989.06;5025965;27;98732;-80
2021/04/04 03:21:48;;;;;;;;;;;;;;;8.14;37.33;101988.25;5034310;28;96682;-81
2021/04/04 03:24:14;;;;;;;;;;;;;;;8.29;37.66;101988.16;5035409;28;97386;-82
2021/04/04 03:26:40;;;;;;;;;;;;;;;8.10;38.17;101985.66;5035085;28;100095;-82
2021/04/04 03:29:08;;;;;;;;;;;;;;;8.28;37.34;101991.69;5021404;27;100930;-82
2021/04/04 03:31:34;;;;;;;;;;;;;;;8.26;37.11;101977.69;5031860;28;97130;-81
2021/04/04 03:34:00;;;;;;;;;;;;;;;8.44;37.07;101983.72;5034463;28;96952;-80
2021/04/04 03:36:26;;;;;;;;;;;;;;;7.98;38.05;101973.44;5021212;27;99217;-80
2021/04/04 03:38:53;;;;;;;;;;;;;;;8.28;37.98;101972.38;5032921;28;98549;-80
2021/04/04 03:41:20;;;;;;;;;;;;;;;8.21;38.73;101968.91;5026626;28;97019;-79
2021/04/04 03:43:48;;;;;;;;;;;;;;;7.95;38.98;101961.16;5028951;28;96824;-79
2021/04/04 03:46:15;;;;;;;;;;;;;;;8.29;38.91;101961.84;5036025;28;98614;-81
2021/04/04 03:48:44;;;;;;;;;;;;;;;8.08;39.22;101972.50;5030575;28;98035;-81
2021/04/04 03:51:10;;;;;;;;;;;;;;;8.17;39.27;101967.19;5043156;28;96548;-81
2021/04/04 03:53:38;;;;;;;;;;;;;;;7.93;39.23;101964.72;5051020;28;96607;-80
2021/04/04 03:56:05;;;;;;;;;;;;;;;8.03;38.72;101955.84;5039226;28;97652;-81
2021/04/04 03:58:33;;;;;;;;;;;;;;;8.06;38.62;101955.84;5032178;28;98629;-80
2021/04/04 04:01:01;;;;;;;;;;;;;;;8.38;37.58;101955.69;5041550;28;96679;-81
2021/04/04 04:03:28;;;;;;;;;;;;;;;8.25;37.93;101960.13;5037680;28;96605;-80
2021/04/04 04:05:54;;;;;;;;;;;;;;;7.96;38.30;101955.03;5046063;28;100642;-81
2021/04/04 04:08:20;;;;;;;;;;;;;;;7.95;39.39;101953.28;5030349;27;99717;-81
2021/04/04 04:10:47;;;;;;;;;;;;;;;8.01;39.15;101949.72;5035737;28;97063;-81
2021/04/04 04:13:14;;;;;;;;;;;;;;;8.12;38.34;101953.19;5034099;28;96821;-81
2021/04/04 04:15:40;;;;;;;;;;;;;;;8.29;37.22;101956.56;5032910;28;98965;-81
2021/04/04 04:18:07;;;;;;;;;;;;;;;8.18;37.47;101949.63;5031499;28;97759;-81
2021/04/04 04:20:34;;;;;;;;;;;;;;;7.94;38.52;101945.41;5018979;28;96856;-81
2021/04/04 04:23:02;;;;;;;;;;;;;;;7.46;39.49;101949.13;5033761;28;96764;-82
2021/04/04 04:25:29;;;;;;;;;;;;;;;7.76;38.82;101942.84;5023113;28;97940;-81
2021/04/04 04:27:57;;;;;;;;;;;;;;;7.67;39.25;101945.53;5013739;28;97548;-80
2021/04/04 04:30:23;;;;;;;;;;;;;;;7.65;39.53;101944.66;5026646;28;97153;-81
2021/04/04 04:32:52;;;;;;;;;;;;;;;7.35;39.97;101949.16;5033587;28;97022;-80
2021/04/04 04:35:19;;;;;;;;;;;;;;;7.42;40.11;101943.00;5031757;27;101325;-80
2021/04/04 04:37:46;;;;;;;;;;;;;;;7.60;39.67;101937.69;5021436;28;100149;-80
2021/04/04 04:40:13;;;;;;;;;;;;;;;7.66;39.54;101944.66;5020156;27;96921;-82
2021/04/04 04:42:41;;;;;;;;;;;;;;;7.70;39.22;101942.88;5027645;28;97053;-80
2021/04/04 04:45:11;;;;;;;;;;;;;;;7.86;38.72;101931.41;5019401;28;99213;-81
2021/04/04 04:47:38;;;;;;;;;;;;;;;7.81;38.93;101941.94;5032212;28;99195;-81
2021/04/04 04:50:04;;;;;;;;;;;;;;;7.57;39.10;101932.41;5022587;27;97405;-81
2021/04/04 04:52:31;;;;;;;;;;;;;;;7.98;38.17;101929.56;5017058;28;96846;-81
2021/04/04 04:54:57;;;;;;;;;;;;;;;7.89;39.08;101934.88;5034945;28;99184;-80
2021/04/04 04:57:23;;;;;;;;;;;;;;;7.83;38.85;101928.78;5037008;27;99007;-81
2021/04/04 04:59:50;;;;;;;;;;;;;;;8.04;37.63;101933.94;5035366;28;96757;-81
2021/04/04 05:02:16;;;;;;;;;;;;;;;8.13;37.87;101933.88;5023860;28;96775;-81
2021/04/04 05:04:46;;;;;;;;;;;;;;;8.04;37.60;101939.19;5019237;28;100926;-82
2021/04/04 05:07:12;;;;;;;;;;;;;;;8.12;37.44;101932.13;5027595;28;99158;-81
2021/04/04 05:09:40;;;;;;;;;;;;;;;8.26;36.63;101938.19;5036997;28;97103;-81
2021/04/04 05:12:08;;;;;;;;;;;;;;;8.34;35.95;101932.84;5032630;27;96772;-82
2021/04/04 05:14:34;;;;;;;;;;;;;;;8.60;35.86;101935.31;5022902;28;99165;-80
2021/04/04 05:16:59;;;;;;;;;;;;;;;8.69;35.56;101930.81;5037824;28;100865;-80
2021/04/04 05:19:28;;;;;;;;;;;;;;;8.68;35.73;101929.06;5037789;27;96794;-80
2021/04/04 05:21:55;;;;;;;;;;;;;;;8.52;36.01;101938.00;5031642;28;96863;-81
2021/04/04 05:24:21;;;;;;;;;;;;;;;8.69;35.21;101930.81;5019840;27;101977;-81
2021/04/04 05:26:48;;;;;;;;;;;;;;;8.71;35.23;101938.72;5035933;28;98945;-81
2021/04/04 05:29:15;;;;;;;;;;;;;;;8.89;34.73;101928.00;5026401;28;97792;-80
2021/04/04 05:31:44;;;;;;;;;;;;;;;8.89;34.96;101933.28;5036808;28;96736;-82
2021/04/04 05:34:11;;;;;;;;;;;;;;;9.01;34.32;101925.22;5032455;28;98286;-80
2021/04/04 05:36:45;;;;;;;;;;;;;;;8.96;34.30;101927.06;5021529;28;101528;-80
2021/04/04 05:39:11;;;;;;;;;;;;;;;9.10;33.95;101926.91;5021597;28;96744;-80
2021/04/04 05:41:39;;;;;;;;;;;;;;;8.97;33.99;101925.28;5030519;28;97058;-80
2021/04/04 05:44:06;;;;;;;;;;;;;;;9.07;34.09;101917.25;5023641;28;98838;-80
2021/04/04 05:46:35;;;;;;;;;;;;;;;9.36;33.48;101924.84;5034171;28;99081;-80
2021/04/04 05:49:03;;;;;;;;;;;;;;;9.43;33.34;101925.66;5033811;28;96593;-80
2021/04/04 05:51:42;;;;;;;;;;;;;;;9.54;33.03;101914.06;5042720;28;96718;-81
2021/04/04 05:54:19;;;;;;;;;;;;;;;9.74;32.33;101910.28;5032496;28;98118;-81
2021/04/04 05:56:47;;;;;;;;;;;;;;;9.39;32.84;101916.88;5031155;28;97715;-81
2021/04/04 05:59:14;;;;;;;;;;;;;;;9.76;32.23;101906.75;5036980;28;97640;-80
2021/04/04 06:01:53;;;;;;;;;;;;;;;9.47;32.98;101916.78;5035103;28;96965;-81
2021/04/04 06:04:31;;;;;;;;;;;;;;;9.63;32.48;101910.44;5036776;27;98904;-81
2021/04/04 06:07:15;;;;;;;;;;;;;;;9.47;32.86;101914.16;5034301;28;98897;-80
2021/04/04 06:09:56;;;;;;;;;;;;;;;9.97;31.99;101905.56;5031776;28;96720;-80
2021/04/04 06:12:37;;;;;;;;;;;;;;;9.73;32.58;101909.41;5023518;28;96689;-81
2021/04/04 06:15:05;;;;;;;;;;;;;;;9.68;32.40;101905.09;5035899;27;98803;-81
2021/04/04 06:17:36;;;;;;;;;;;;;;;9.98;32.06;101912.56;5035018;28;97382;-81
2021/04/04 06:20:08;;;;;;;;;;;;;;;10.11;32.30;101910.66;5035288;27;96760;-81
2021/04/04 06:22:36;;;;;;;;;;;;;;;10.33;31.82;101904.16;5020693;28;96833;-82
2021/04/04 06:25:04;;;;;;;;;;;;;;;10.10;32.29;101908.91;5024157;28;99187;-81
2021/04/04 06:27:35;;;;;;;;;;;;;;;10.25;32.26;101911.31;5025677;28;98822;-80
2021/04/04 06:30:20;;;;;;;;;;;;;;;10.23;32.36;101900.81;5031557;28;97194;-81
2021/04/04 06:32:53;;;;;;;;;;;;;;;10.57;32.20;101911.66;5042381;28;96713;-81
2021/04/04 06:35:25;;;;;;;;;;;;;;;10.55;32.39;101912.59;5025158;28;100420;-82
2021/04/04 06:38:03;;;;;;;;;;;;;;;10.43;32.89;101905.78;5026175;28;98288;-80
2021/04/04 06:40:34;;;;;;;;;;;;;;;10.76;32.70;101906.97;5044141;28;96631;-81
2021/04/04 06:43:03;;;;;;;;;;;;;;;11.00;32.33;101903.84;5040533;28;96759;-80
2021/04/04 06:45:34;;;;;;;;;;;;;;;11.03;32.17;101910.84;5042185;28;99088;-80
2021/04/04 06:48:14;;;;;;;;;;;;;;;10.92;32.46;101910.19;5043611;28;100406;-80
2021/04/04 06:50:47;;;;;;;;;;;;;;;10.81;33.06;101907.75;5046664;28;98566;-80
2021/04/04 06:53:22;;;;;;;;;;;;;;;11.15;32.60;101908.84;5045163;28;96674;-82
2021/04/04 06:55:55;;;;;;;;;;;;;;;12.01;31.28;101899.13;5043402;27;99480;-80
2021/04/04 06:58:27;;;;;;;;;;;;;;;12.29;30.86;101890.47;5036435;27;99714;-82
2021/04/04 07:01:02;;;;;;;;;;;;;;;12.47;30.68;101897.09;5042775;28;96784;-81
2021/04/04 07:03:36;;;;;;;;;;;;;;;11.94;31.38;101895.75;5036702;28;96610;-82
2021/04/04 07:06:10;;;;;;;;;;;;;;;12.06;31.33;101899.88;5040905;28;100826;-81
2021/04/04 07:08:49;;;;;;;;;;;;;;;11.86;31.92;101900.34;5037219;28;102158;-79
2021/04/04 07:11:22;;;;;;;;;;;;;;;11.86;32.17;101905.63;5029135;28;96768;-82
2021/04/04 07:13:58;;;;;;;;;;;;;;;11.88;32.25;101906.47;5032437;28;96865;-80
2021/04/04 07:16:35;;;;;;;;;;;;;;;11.58;32.46;101900.91;5032437;27;96735;-81
2021/04/04 07:19:28;;;;;;;;;;;;;;;12.26;31.60;101898.50;5024799;28;99990;-82
2021/04/04 07:22:01;;;;;;;;;;;;;;;11.59;32.90;101910.59;5023070;28;97347;-80
2021/04/04 07:24:36;;;;;;;;;;;;;;;12.13;32.22;101907.66;5034720;28;96853;-82
2021/04/04 07:27:05;;;;;;;;;;;;;;;11.26;33.16;101911.28;5041952;27;97829;-80
2021/04/04 07:29:42;;;;;;;;;;;;;;;11.28;33.85;101909.50;5029242;28;99250;-80
2021/04/04 07:32:10;;;;;;;;;;;;;;;11.80;32.71;101911.06;5047481;28;96704;-81
2021/04/04 07:34:54;;;;;;;;;;;;;;;11.86;31.71;101903.00;5037821;28;96529;-80
2021/04/04 07:37:28;;;;;;;;;;;;;;;12.55;30.64;101902.19;5047731;27;101192;-80
2021/04/04 07:40:02;;;;;;;;;;;;;;;12.09;31.36;101903.31;5047301;27;98274;-80
2021/04/04 07:42:34;;;;;;;;;;;;;;;12.25;31.23;101894.09;5042881;28;97329;-81
2021/04/04 07:45:07;;;;;;;;;;;;;;;12.34;31.50;101893.88;5038485;28;98010;-80
2021/04/04 07:47:40;;;;;;;;;;;;;;;12.59;30.83;101886.19;5053849;28;100289;-81
2021/04/04 07:50:07;;;;;;;;;;;;;;;12.66;30.58;101885.13;5040030;28;98055;-80
2021/04/04 07:52:38;;;;;;;;;;;;;;;12.72;30.65;101884.09;5029699;28;97165;-82
2021/04/04 07:55:07;;;;;;;;;;;;;;;12.54;31.36;101884.53;5040771;28;97456;-81
2021/04/04 07:57:52;;;;;;;;;;;;;;;13.29;30.28;101872.81;5044146;28;101758;-80
2021/04/04 08:00:18;;;;;;;;;;;;;;;12.99;31.18;101871.88;5046893;28;96824;-80
2021/04/04 08:02:48;;;;;;;;;;;;;;;13.25;31.45;101873.81;5047499;28;96841;-81
2021/04/04 08:05:16;;;;;;;;;;;;;;;13.69;30.94;101875.16;5048782;27;96962;-82
2021/04/04 08:07:50;;;;;;;;;;;;;;;13.75;31.60;101874.97;5043632;28;97088;-81
2021/04/04 08:10:19;;;;;;;;;;;;;;;12.90;33.23;101870.31;5049557;28;97602;-81
2021/04/04 08:12:49;;;;;;;;;;;;;;;14.36;31.50;101869.44;5041642;27;97167;-80
2021/04/04 08:15:18;;;;;;;;;;;;;;;13.18;33.64;101869.59;5039192;28;97792;-81
2021/04/04 08:17:44;;;;;;;;;;;;;;;14.00;33.00;101864.44;5048116;28;97970;-82
2021/04/04 08:20:20;;;;;;;;;;;;;;;13.90;32.83;101853.25;5047852;28;96675;-81
2021/04/04 08:25:35;;;;;;;;;;;;;;;13.48;33.70;101855.41;5042457;27;96964;-81
2021/04/04 08:28:05;;;;;;;;;;;;;;;13.51;33.76;101852.69;5053096;28;98411;-81
2021/04/04 08:30:39;;;;;;;;;;;;;;;13.04;34.13;101852.25;5046045;28;96848;-82
2021/04/04 08:33:07;;;;;;;;;;;;;;;13.78;32.90;101843.88;5045539;27;96870;-81
2021/04/04 08:35:37;;;;;;;;;;;;;;;14.00;32.94;101844.03;5050168;28;96911;-82
2021/04/04 08:38:07;;;;;;;;;;;;;;;14.22;32.47;101842.44;5047938;27;99618;-81
2021/04/04 08:40:34;;;;;;;;;;;;;;;14.06;32.75;101845.63;5037910;28;97751;-80
2021/04/04 08:43:00;;;;;;;;;;;;;;;13.98;33.08;101842.38;5045490;28;99584;-81
2021/04/04 08:45:30;;;;;;;;;;;;;;;14.38;32.62;101836.59;5047285;27;97442;-81
2021/04/04 08:47:56;;;;;;;;;;;;;;;14.04;33.16;101839.50;5037693;27;101792;-81
2021/04/04 08:50:24;;;;;;;;;;;;;;;13.81;33.81;101842.88;5048473;27;98912;-80
2021/04/04 08:52:51;;;;;;;;;;;;;;;14.09;33.50;101841.09;5041408;27;97265;-80
2021/04/04 08:55:21;;;;;;;;;;;;;;;14.25;33.47;101837.00;5041201;27;97344;-80
2021/04/04 08:57:48;;;;;;;;;;;;;;;14.85;32.28;101841.16;5036310;27;98912;-80
2021/04/04 09:00:15;;;;;;;;;;;;;;;14.62;33.10;101839.31;5048150;27;97277;-79
2021/04/04 09:02:44;;;;;;;;;;;;;;;14.53;33.62;101834.31;5040299;27;96742;-80
2021/04/04 09:05:11;;;;;;;;;;;;;;;15.04;32.56;101833.34;5046272;28;98401;-81
2021/04/04 09:07:41;;;;;;;;;;;;;;;15.10;32.45;101833.13;5033708;27;100793;-78
2021/04/04 09:10:10;;;;;;;;;;;;;;;14.64;33.09;101837.44;5044426;27;98252;-80
2021/04/04 09:12:38;;;;;;;;;;;;;;;14.69;33.40;101835.53;5044276;27;96630;-80
2021/04/04 09:15:05;;;;;;;;;;;;;;;14.33;33.38;101836.75;5057259;28;97075;-81
2021/04/04 09:17:31;;;;;;;;;;;;;;;14.69;33.13;101830.19;5051469;27;97911;-80
2021/04/04 09:20:02;;;;;;;;;;;;;;;14.56;33.43;101828.91;5057028;27;96784;-80
2021/04/04 09:22:29;;;;;;;;;;;;;;;14.29;33.78;101824.47;5051541;27;96639;-80
2021/04/04 09:24:55;;;;;;;;;;;;;;;14.54;33.91;101817.44;5044283;27;96880;-80
2021/04/04 09:27:23;;;;;;;;;;;;;;;14.48;33.17;101819.44;5041987;27;99357;-81
2021/04/04 09:29:51;;;;;;;;;;;;;;;13.92;33.86;101814.19;5043975;27;98830;-81
2021/04/04 09:32:25;;;;;;;;;;;;;;;14.64;32.70;101821.50;5042039;27;97469;-81
2021/04/04 09:34:52;;;;;;;;;;;;;;;15.18;32.21;101817.75;5040016;27;96984;-81
2021/04/04 09:37:22;;;;;;;;;;;;;;;14.82;32.53;101814.66;5043995;28;100652;-81
2021/04/04 09:39:51;;;;;;;;;;;;;;;15.14;32.07;101805.50;5041418;28;101161;-80
2021/04/04 09:42:21;;;;;;;;;;;;;;;14.05;34.32;101815.53;5043056;28;97208;-78
2021/04/04 09:44:47;;;;;;;;;;;;;;;14.62;33.18;101806.53;4996308;28;96868;-80
2021/04/04 09:47:17;;;;;;;;;;;;;;;14.80;32.73;101815.63;4996574;28;98979;-84
2021/04/04 09:49:44;;;;;;;;;;;;;;;14.26;33.18;101808.63;5001289;28;102202;-81
2021/04/04 09:52:21;;;;;;;;;;;;;;;14.83;32.41;101804.91;5008079;28;96683;-80
2021/04/04 09:54:57;;;;;;;;;;;;;;;14.83;32.01;101805.75;5011808;28;97028;-80
2021/04/04 09:57:23;;;;;;;;;;;;;;;14.95;32.20;101805.31;4997003;28;98187;-80
2021/04/04 09:59:53;;;;;;;;;;;;;;;14.57;32.68;101793.38;4999873;28;101684;-79
2021/04/04 10:02:32;;;;;;;;;;;;;;;14.35;33.78;101790.59;4990642;28;96800;-81
2021/04/04 10:04:58;;;;;;;;;;;;;;;14.10;33.77;101784.38;4989662;28;96815;-80
2021/04/04 10:07:28;;;;;;;;;;;;;;;14.56;33.11;101799.63;4993635;28;99054;-80
2021/04/04 10:09:54;;;;;;;;;;;;;;;14.38;33.42;101788.75;4996448;28;98857;-79
2021/04/04 10:12:20;;;;;;;;;;;;;;;14.27;33.84;101795.28;4994389;28;99046;-82
2021/04/04 10:14:59;;;;;;;;;;;;;;;13.99;34.65;101799.78;4994004;28;96842;-81
2021/04/04 10:17:25;;;;;;;;;;;;;;;14.34;33.97;101791.50;4996996;28;98986;-81
2021/04/04 10:19:55;;;;;;;;;;;;;;;14.33;33.98;101784.44;4995744;28;100318;-81
2021/04/04 10:22:21;;;;;;;;;;;;;;;14.19;34.58;101785.81;5003116;28;97244;-80
2021/04/04 10:24:48;;;;;;;;;;;;;;;14.10;34.46;101784.38;5010291;28;96108;-82
2021/04/04 10:27:18;;;;;;;;;;;;;;;13.82;35.04;101773.78;5003082;28;97918;-81
2021/04/04 10:29:45;;;;;;;;;;;;;;;14.03;35.17;101776.66;4995056;28;98735;-81
2021/04/04 10:32:14;;;;;;;;;;;;;;;14.10;35.28;101771.09;4994351;28;96755;-81
2021/04/04 10:34:43;;;;;;;;;;;;;;;14.06;35.39;101769.41;4996192;28;96855;-80
2021/04/04 10:37:10;;;;;;;;;;;;;;;14.33;34.67;101765.81;4998610;28;98927;-81
2021/04/04 10:39:39;;;;;;;;;;;;;;;14.69;33.90;101766.34;4994103;28;97774;-84
2021/04/04 10:42:14;;;;;;;;;;;;;;;14.92;33.54;101759.28;4998723;28;97033;-83
2021/04/04 10:44:41;;;;;;;;;;;;;;;14.66;33.31;101753.16;5033574;27;97366;-84
2021/04/04 10:47:20;;;;;;;;;;;;;;;14.57;34.02;101758.78;5048307;27;101415;-82
2021/04/04 10:49:46;;;;;;;;;;;;;;;14.16;34.89;101752.25;5028053;27;101222;-82
2021/04/04 10:52:13;;;;;;;;;;;;;;;14.22;34.72;101754.69;5025117;27;96802;-80
2021/04/04 10:54:42;;;;;;;;;;;;;;;14.62;34.02;101743.56;5032295;27;97087;-80
2021/04/04 10:57:08;;;;;;;;;;;;;;;14.92;33.59;101746.88;5033191;27;101794;-80
2021/04/04 10:59:34;;;;;;;;;;;;;;;14.88;33.61;101742.59;5036911;27;100912;-81
2021/04/04 11:02:01;;;;;;;;;;;;;;;14.98;33.72;101737.78;5033970;27;96878;-80
2021/04/04 11:04:28;;;;;;;;;;;;;;;14.80;34.03;101738.47;5030801;27;96874;-81
2021/04/04 11:09:56;;;;;;;;;;;;;;;15.00;33.25;101728.81;5153777;27;96577;-80
2021/04/04 11:12:22;;;;;;;;;;;;;;;15.43;32.73;101714.66;5122471;27;96841;-82
2021/04/04 11:14:51;;;;;;;;;;;;;;;15.41;32.33;101713.03;5131574;27;100876;-81
2021/04/04 11:17:18;;;;;;;;;;;;;;;14.60;33.77;101718.78;5118603;27;99768;-81
2021/04/04 11:19:44;;;;;;;;;;;;;;;15.14;32.33;101707.00;5121909;27;97242;-81
2021/04/04 11:22:13;;;;;;;;;;;;;;;15.31;32.21;101698.31;5119786;27;96916;-80
2021/04/04 11:24:38;;;;;;;;;;;;;;;15.09;32.30;101695.66;5131134;27;99267;-80
2021/04/04 11:27:06;;;;;;;;;;;;;;;15.08;32.25;101688.59;5131760;27;98892;-80
2021/04/04 11:29:46;;;;;;;;;;;;;;;15.32;31.91;101684.94;5119968;27;97006;-79
2021/04/04 11:32:15;;;;;;;;;;;;;;;15.85;31.26;101692.56;5119517;27;97336;-80
2021/04/04 11:34:43;;;;;;;;;;;;;;;16.00;31.60;101681.25;5131423;27;100296;-82
2021/04/04 11:37:23;;;;;;;;;;;;;;;15.58;32.07;101680.38;5139082;27;98279;-81
2021/04/04 11:40:04;;;;;;;;;;;;;;;15.97;31.29;101673.38;5133517;27;96872;-81
2021/04/04 11:42:31;;;;;;;;;;;;;;;15.56;31.82;101671.63;5124888;27;97161;-80
2021/04/04 11:44:57;;;;;;;;;;;;;;;15.34;32.06;101659.13;5136371;27;97814;-81
2021/04/04 11:47:23;;;;;;;;;;;;;;;14.68;32.86;101660.00;5129995;27;99245;-79
2021/04/04 11:49:49;;;;;;;;;;;;;;;15.11;32.76;101661.84;5119918;27;96728;-81
2021/04/04 11:52:35;;;;;;;;;;;;;;;14.96;33.50;101654.47;5135649;27;96920;-81
2021/04/04 11:55:01;;;;;;;;;;;;;;;14.99;34.01;101657.00;5139548;27;96896;-82
2021/04/04 11:57:30;;;;;;;;;;;;;;;14.77;33.99;101649.84;5123242;27;97589;-82
2021/04/04 11:59:57;;;;;;;;;;;;;;;14.81;34.20;101642.63;5119342;27;97665;-81
2021/04/04 12:02:24;;;;;;;;;;;;;;;14.98;33.21;101644.63;5138050;27;96862;-81
2021/04/04 12:04:58;;;;;;;;;;;;;;;15.29;32.38;101641.63;5127172;27;97728;-82
2021/04/04 12:07:25;;;;;;;;;;;;;;;14.74;32.44;101634.03;5135088;27;99378;-81
2021/04/04 12:09:51;;;;;;;;;;;;;;;15.11;32.28;101633.44;5131418;27;97089;-82
2021/04/04 12:12:17;;;;;;;;;;;;;;;15.09;31.39;101626.44;5136525;27;96999;-81
2021/04/04 12:14:47;;;;;;;;;;;;;;;15.36;31.13;101617.31;5128826;27;97635;-82
2021/04/04 12:17:14;;;;;;;;;;;;;;;15.70;30.75;101611.47;5123333;27;99202;-82
2021/04/04 12:19:42;;;;;;;;;;;;;;;16.08;30.45;101608.94;5126503;27;96776;-82
2021/04/04 12:25:31;;;;;;;;;;;;;;;16.13;30.41;101594.47;5088338;27;97115;-80
2021/04/04 12:27:58;;;;;;;;;;;;;;;16.47;29.88;101598.25;5127764;27;98069;-80
2021/04/04 12:30:26;;;;;;;;;;;;;;;16.18;30.15;101589.78;5134299;27;98921;-80
2021/04/04 12:33:03;;;;;;;;;;;;;;;16.27;30.01;101584.03;5114412;27;96749;-79
2021/04/04 12:35:29;;;;;;;;;;;;;;;16.44;29.87;101577.91;5118493;27;97145;-78
2021/04/04 12:37:55;;;;;;;;;;;;;;;16.32;30.01;101575.81;5118664;27;99403;-78
2021/04/04 12:40:21;;;;;;;;;;;;;;;16.19;30.13;101572.84;5130152;27;96695;-79
2021/04/04 12:42:47;;;;;;;;;;;;;;;15.79;30.90;101571.09;5121738;27;96725;-80
2021/04/04 12:45:14;;;;;;;;;;;;;;;15.69;30.86;101566.22;5120436;27;99239;-79
2021/04/04 12:47:41;;;;;;;;;;;;;;;15.95;30.55;101560.63;5106289;27;98171;-79
2021/04/04 12:50:09;;;;;;;;;;;;;;;16.49;30.16;101564.34;5120899;27;97322;-80
2021/04/04 12:52:39;;;;;;;;;;;;;;;16.59;30.08;101552.31;5121245;27;96887;-80
2021/04/04 12:55:16;;;;;;;;;;;;;;;15.82;31.27;101551.44;5101096;27;99421;-78
2021/04/04 12:57:46;;;;;;;;;;;;;;;16.02;30.74;101546.06;5101232;27;98472;-80
2021/04/04 13:00:20;;;;;;;;;;;;;;;16.38;30.53;101553.31;5102736;27;96687;-82